Time;durP1;ratioP1;P1;durP2;ratioP2;P2;SDS_P1;SDS_P2;PMS_P1;PMS_P2;Temp;Humidity;BMP_temperature;BMP_pressure;BME280_temperature;BME280_humidity;BME280_pressure;Samples;Min_cycle;Max_cycle;Signal;HPM_P1;HPM_P2
2023/06/05 00:01:42;;;;;;;5.18;1.45;;;17.50;68.00;;;;;;5032954;28;20037;-69
2023/06/05 00:04:08;;;;;;;5.25;2.17;;;17.50;68.60;;;;;;5031725;28;20083;-70
2023/06/05 00:06:33;;;;;;;4.25;2.10;;;17.40;69.40;;;;;;5032095;28;20026;-70
2023/06/05 00:08:59;;;;;;;3.63;1.60;;;17.50;68.80;;;;;;5032833;28;20421;-69
2023/06/05 00:11:25;;;;;;;5.47;2.10;;;17.40;70.00;;;;;;5032858;28;20487;-70
2023/06/05 00:13:51;;;;;;;4.88;2.90;;;17.40;69.80;;;;;;5033094;28;20435;-70
2023/06/05 00:16:16;;;;;;;5.32;1.90;;;17.30;70.80;;;;;;5032760;28;20531;-71
2023/06/05 00:18:43;;;;;;;3.67;1.60;;;17.00;71.70;;;;;;5032612;28;20097;-69
2023/06/05 00:21:09;;;;;;;3.13;1.70;;;17.10;70.90;;;;;;5033181;28;20026;-70
2023/06/05 00:23:35;;;;;;;3.58;2.10;;;17.20;70.80;;;;;;5032640;28;20040;-70
2023/06/05 00:26:01;;;;;;;7.60;2.17;;;17.20;71.10;;;;;;5032534;28;20047;-70
2023/06/05 00:28:27;;;;;;;3.95;1.92;;;17.00;72.10;;;;;;5032421;28;20503;-70
2023/06/05 00:30:52;;;;;;;7.85;2.72;;;17.00;72.40;;;;;;5032159;28;20160;-70
2023/06/05 00:33:18;;;;;;;6.95;2.03;;;16.80;73.70;;;;;;5033028;28;20025;-68
2023/06/05 00:35:44;;;;;;;5.28;1.90;;;16.70;74.30;;;;;;5031757;28;20034;-69
2023/06/05 00:38:10;;;;;;;3.17;1.60;;;16.80;74.20;;;;;;5031710;28;20057;-70
2023/06/05 00:40:36;;;;;;;5.30;1.85;;;16.60;74.90;;;;;;5032543;28;20065;-70
2023/06/05 00:43:02;;;;;;;6.10;2.20;;;16.60;74.70;;;;;;5032238;28;20049;-70
2023/06/05 00:45:28;;;;;;;6.32;2.22;;;16.50;75.60;;;;;;5032489;28;20033;-69
2023/06/05 00:47:54;;;;;;;3.30;2.00;;;16.50;76.20;;;;;;5031953;28;20080;-69
2023/06/05 00:50:23;;;;;;;4.10;1.67;;;16.60;75.00;;;;;;5031957;28;20340;-70
2023/06/05 00:52:50;;;;;;;3.42;1.85;;;16.70;75.30;;;;;;5030118;28;20403;-69
2023/06/05 00:55:16;;;;;;;3.23;1.67;;;16.60;76.20;;;;;;5031686;28;20700;-69
2023/06/05 00:57:44;;;;;;;7.40;2.22;;;16.30;77.30;;;;;;5032021;28;20029;-69
2023/06/05 01:00:12;;;;;;;;;;;16.20;77.50;;;;;;5032758;28;20022;-69
2023/06/05 01:02:39;;;;;;;4.75;1.65;;;16.30;77.20;;;;;;5030412;28;19909;-69
2023/06/05 01:05:06;;;;;;;4.57;2.10;;;16.40;76.20;;;;;;5031706;28;20036;-69
2023/06/05 01:07:34;;;;;;;6.90;2.25;;;16.50;76.40;;;;;;5031661;28;20033;-71
2023/06/05 01:10:03;;;;;;;3.45;2.20;;;16.20;78.20;;;;;;5031571;28;20021;-70
2023/06/05 01:12:56;;;;;;;5.95;1.60;;;16.10;78.60;;;;;;5032023;28;20021;-70
2023/06/05 01:15:28;;;;;;;3.28;1.95;;;16.20;78.50;;;;;;5031967;28;20352;-68
2023/06/05 01:17:57;;;;;;;5.22;2.10;;;16.10;79.30;;;;;;5031367;28;20056;-68
2023/06/05 01:20:22;;;;;;;5.45;2.20;;;15.90;79.70;;;;;;5031682;28;20030;-69
2023/06/05 01:22:52;;;;;;;4.25;1.80;;;16.10;79.50;;;;;;5031300;28;20030;-69
2023/06/05 01:25:18;;;;;;;4.50;1.75;;;16.10;79.60;;;;;;5031895;28;20344;-68
2023/06/05 01:27:55;;;;;;;5.85;2.20;;;16.00;80.30;;;;;;5031771;28;20143;-69
2023/06/05 01:30:28;;;;;;;5.78;2.00;;;15.90;81.00;;;;;;5031839;28;20034;-69
2023/06/05 01:33:02;;;;;;;5.95;2.47;;;15.90;80.60;;;;;;5031356;28;20030;-69
2023/06/05 01:35:32;;;;;;;3.63;1.92;;;15.90;80.60;;;;;;5036626;28;20036;-69
2023/06/05 01:38:02;;;;;;;3.53;2.17;;;15.70;82.20;;;;;;5050993;28;20386;-69
2023/06/05 01:40:31;;;;;;;2.50;1.58;;;15.60;82.50;;;;;;5050681;28;20060;-69
2023/06/05 01:42:59;;;;;;;5.05;1.90;;;15.60;83.00;;;;;;5050005;28;20025;-70
2023/06/05 01:45:25;;;;;;;;;;;15.60;82.90;;;;;;5052149;28;20031;-71
2023/06/05 01:47:50;;;;;;;5.20;2.60;;;15.70;82.60;;;;;;5049883;28;19913;-69
2023/06/05 01:50:17;;;;;;;6.18;2.55;;;15.60;83.20;;;;;;5050903;28;20474;-69
2023/06/05 01:52:47;;;;;;;4.18;2.22;;;15.70;82.40;;;;;;5051016;28;20040;-71
2023/06/05 01:55:20;;;;;;;8.27;2.03;;;15.70;82.10;;;;;;5051053;28;20040;-69
2023/06/05 01:57:45;;;;;;;6.15;2.28;;;15.80;82.50;;;;;;5050667;28;20606;-70
2023/06/05 02:00:15;;;;;;;3.88;2.00;;;15.80;83.10;;;;;;5051128;28;20081;-69
2023/06/05 02:02:42;;;;;;;4.78;2.50;;;15.60;84.10;;;;;;5050874;28;20535;-70
2023/06/05 02:05:12;;;;;;;6.00;2.40;;;15.60;84.80;;;;;;5050675;28;20467;-70
2023/06/05 02:07:41;;;;;;;5.00;2.50;;;15.60;84.20;;;;;;5049879;28;20033;-71
2023/06/05 02:10:08;;;;;;;4.93;2.35;;;15.50;84.80;;;;;;5050738;28;20067;-70
2023/06/05 02:12:34;;;;;;;4.50;2.50;;;15.50;84.80;;;;;;5051496;28;20037;-70
2023/06/05 02:15:00;;;;;;;5.25;2.38;;;15.40;85.30;;;;;;5051146;28;20382;-70
2023/06/05 02:17:27;;;;;;;3.55;2.13;;;15.50;85.50;;;;;;5050616;28;20033;-70
2023/06/05 02:19:52;;;;;;;5.45;2.10;;;15.30;86.50;;;;;;5050567;28;20037;-70
2023/06/05 02:22:18;;;;;;;3.38;1.90;;;15.40;85.60;;;;;;5050616;28;20094;-70
2023/06/05 02:24:44;;;;;;;3.60;2.38;;;15.30;86.90;;;;;;5050707;28;20745;-71
2023/06/05 02:27:10;;;;;;;4.32;2.35;;;15.20;87.40;;;;;;5050948;28;20100;-69
2023/06/05 02:29:39;;;;;;;6.63;2.78;;;15.20;87.70;;;;;;5050378;28;20053;-70
2023/06/05 02:32:06;;;;;;;5.35;2.30;;;15.20;88.30;;;;;;5050519;28;20037;-71
2023/06/05 02:34:34;;;;;;;4.05;2.33;;;15.00;89.00;;;;;;5050674;28;20037;-69
2023/06/05 02:37:01;;;;;;;5.75;2.35;;;15.00;89.00;;;;;;5050395;28;20127;-69
2023/06/05 02:39:26;;;;;;;6.45;2.88;;;14.80;89.90;;;;;;5049742;28;20558;-70
2023/06/05 02:41:55;;;;;;;6.72;2.67;;;15.00;89.10;;;;;;5050290;28;20120;-71
2023/06/05 02:44:21;;;;;;;4.53;2.75;;;15.10;89.40;;;;;;5050695;28;20037;-70
2023/06/05 02:46:46;;;;;;;7.32;2.45;;;15.00;89.60;;;;;;5050372;28;20033;-70
2023/06/05 02:49:12;;;;;;;8.10;2.40;;;15.00;89.90;;;;;;5049131;28;20108;-69
2023/06/05 02:51:37;;;;;;;4.63;2.53;;;14.90;90.10;;;;;;5049700;28;20029;-70
2023/06/05 02:54:03;;;;;;;6.65;2.58;;;15.00;90.10;;;;;;5054449;28;20025;-69
2023/06/05 02:56:29;;;;;;;4.95;2.70;;;15.00;89.50;;;;;;5054221;28;20036;-69
2023/06/05 02:58:56;;;;;;;4.65;2.35;;;15.10;89.30;;;;;;5054122;28;20029;-70
2023/06/05 03:01:22;;;;;;;6.88;2.75;;;15.10;89.40;;;;;;5054063;28;20506;-68
2023/06/05 03:03:48;;;;;;;6.85;2.58;;;15.00;89.90;;;;;;5052891;28;20471;-69
2023/06/05 03:06:17;;;;;;;5.40;2.63;;;15.00;90.40;;;;;;5054385;28;20090;-70
2023/06/05 03:08:44;;;;;;;6.72;3.00;;;15.00;90.20;;;;;;5052676;28;20026;-70
2023/06/05 03:11:10;;;;;;;8.57;3.10;;;14.90;90.60;;;;;;5053836;28;20040;-70
2023/06/05 03:13:36;;;;;;;6.80;2.83;;;14.90;90.70;;;;;;5054042;28;20037;-69
2023/06/05 03:16:02;;;;;;;6.13;3.50;;;15.00;90.70;;;;;;5053812;28;20491;-69
2023/06/05 03:18:29;;;;;;;9.10;2.85;;;14.90;90.80;;;;;;5053361;28;20569;-69
2023/06/05 03:20:55;;;;;;;6.40;3.10;;;14.90;90.60;;;;;;5054011;28;20150;-70
2023/06/05 03:23:30;;;;;;;7.40;2.97;;;14.90;90.80;;;;;;5052755;28;20025;-71
2023/06/05 03:25:55;;;;;;;7.43;2.75;;;14.90;90.70;;;;;;5053881;28;20051;-70
2023/06/05 03:28:23;;;;;;;6.78;2.97;;;15.00;90.70;;;;;;5052615;28;20474;-70
2023/06/05 03:30:49;;;;;;;9.35;3.03;;;14.80;91.00;;;;;;5053529;28;20499;-70
2023/06/05 03:33:17;;;;;;;8.35;3.35;;;14.70;91.30;;;;;;5054216;28;20077;-70
2023/06/05 03:35:46;;;;;;;5.25;2.88;;;14.60;91.60;;;;;;5054001;28;20303;-70
2023/06/05 03:38:12;;;;;;;9.75;3.92;;;14.70;91.30;;;;;;5052517;28;20032;-70
2023/06/05 03:40:39;;;;;;;6.47;3.25;;;14.60;91.60;;;;;;5053741;28;20052;-70
2023/06/05 03:43:05;;;;;;;6.38;2.97;;;14.60;91.80;;;;;;5053891;28;20044;-70
2023/06/05 03:45:32;;;;;;;6.63;3.42;;;14.60;92.00;;;;;;5054048;28;20017;-69
2023/06/05 03:47:59;;;;;;;8.32;3.42;;;14.70;91.70;;;;;;5053291;28;20025;-70
2023/06/05 03:50:28;;;;;;;7.43;3.35;;;14.50;92.40;;;;;;5053177;28;20497;-70
2023/06/05 03:53:02;;;;;;;9.88;3.25;;;14.60;92.30;;;;;;5053251;28;20063;-69
2023/06/05 03:55:40;;;;;;;11.05;3.40;;;14.40;92.50;;;;;;5053219;28;20462;-69
2023/06/05 03:58:13;;;;;;;6.25;3.60;;;14.50;92.30;;;;;;5051913;28;20045;-69
2023/06/05 04:00:40;;;;;;;10.82;3.60;;;14.50;92.70;;;;;;5053385;28;20116;-69
2023/06/05 04:03:05;;;;;;;8.82;3.55;;;14.50;92.60;;;;;;5052884;28;20379;-69
2023/06/05 04:05:31;;;;;;;9.73;3.92;;;14.50;92.80;;;;;;5053261;28;20029;-71
2023/06/05 04:07:57;;;;;;;16.42;4.00;;;14.40;92.90;;;;;;5052084;28;20421;-71
2023/06/05 04:10:22;;;;;;;7.55;3.30;;;14.60;92.70;;;;;;5053096;28;20463;-71
2023/06/05 04:12:49;;;;;;;5.50;3.30;;;14.60;92.80;;;;;;5053053;28;20078;-70
2023/06/05 04:15:15;;;;;;;6.40;3.50;;;14.30;93.30;;;;;;5053501;28;20433;-71
2023/06/05 04:17:41;;;;;;;8.90;3.42;;;14.50;93.30;;;;;;5052751;28;20086;-69
2023/06/05 04:20:13;;;;;;;11.32;3.90;;;14.30;93.60;;;;;;5052540;28;20522;-71
2023/06/05 04:22:39;;;;;;;6.53;3.83;;;14.40;93.10;;;;;;5051368;28;20041;-71
2023/06/05 04:25:05;;;;;;;7.32;3.70;;;14.50;93.10;;;;;;5052563;28;20052;-70
2023/06/05 04:27:31;;;;;;;12.82;4.65;;;14.50;93.40;;;;;;5053020;28;20112;-70
2023/06/05 04:29:57;;;;;;;10.45;4.00;;;14.40;93.50;;;;;;5052349;28;20107;-70
2023/06/05 04:32:23;;;;;;;7.65;3.50;;;14.20;94.00;;;;;;5052562;28;20037;-71
2023/06/05 04:34:48;;;;;;;8.95;4.22;;;14.30;94.00;;;;;;5052284;28;20392;-70
2023/06/05 04:37:14;;;;;;;7.57;4.30;;;14.40;93.90;;;;;;5052164;28;20048;-70
2023/06/05 04:39:40;;;;;;;13.68;4.75;;;14.50;93.80;;;;;;5052477;28;20039;-70
2023/06/05 04:42:07;;;;;;;16.83;5.28;;;14.50;94.00;;;;;;5052558;28;20458;-69
2023/06/05 04:44:33;;;;;;;9.43;4.85;;;14.50;94.00;;;;;;5052125;28;20025;-70
2023/06/05 04:46:58;;;;;;;14.93;4.85;;;14.50;94.00;;;;;;5052366;28;20482;-69
2023/06/05 04:49:24;;;;;;;78.68;9.35;;;14.40;94.10;;;;;;5051018;28;20170;-69
2023/06/05 04:51:50;;;;;;;20.00;5.53;;;14.60;93.70;;;;;;5052098;28;20021;-70
2023/06/05 04:54:15;;;;;;;32.05;5.63;;;14.80;93.70;;;;;;5052473;28;20394;-69
2023/06/05 04:56:41;;;;;;;12.90;4.72;;;14.80;93.40;;;;;;5052180;28;20033;-68
2023/06/05 04:59:07;;;;;;;22.67;4.95;;;14.90;93.60;;;;;;5051874;28;20182;-69
2023/06/05 05:01:33;;;;;;;31.15;6.57;;;14.90;93.70;;;;;;5052034;28;20036;-68
2023/06/05 05:03:59;;;;;;;12.32;4.82;;;15.00;93.50;;;;;;5051830;28;20021;-69
2023/06/05 05:06:25;;;;;;;13.10;4.82;;;15.00;93.40;;;;;;5052176;28;20013;-69
2023/06/05 05:08:51;;;;;;;16.38;5.07;;;15.10;93.20;;;;;;5051580;28;20460;-69
2023/06/05 05:11:17;;;;;;;13.05;4.85;;;15.10;93.40;;;;;;5051775;28;20048;-69
2023/06/05 05:13:43;;;;;;;11.63;5.55;;;15.10;93.70;;;;;;5050412;28;20036;-69
2023/06/05 05:16:10;;;;;;;14.10;4.45;;;15.20;93.20;;;;;;5050541;28;20110;-68
2023/06/05 05:18:39;;;;;;;24.92;6.25;;;15.30;93.50;;;;;;5052354;28;20081;-70
2023/06/05 05:21:05;;;;;;;29.80;6.53;;;15.20;93.70;;;;;;5051397;28;20161;-69
2023/06/05 05:23:31;;;;;;;24.73;4.90;;;15.40;93.40;;;;;;5051547;28;20033;-69
2023/06/05 05:25:57;;;;;;;15.25;4.82;;;15.50;93.20;;;;;;5050021;28;20044;-70
2023/06/05 05:28:23;;;;;;;12.73;5.43;;;15.60;93.10;;;;;;5051093;28;20380;-70
2023/06/05 05:30:48;;;;;;;10.00;4.05;;;15.60;93.10;;;;;;5049955;28;20060;-70
2023/06/05 05:33:14;;;;;;;8.18;4.05;;;15.60;93.20;;;;;;5051539;28;20037;-69
2023/06/05 05:35:40;;;;;;;8.27;3.63;;;15.60;93.40;;;;;;5050994;28;20370;-68
2023/06/05 05:38:07;;;;;;;12.55;4.43;;;15.60;93.20;;;;;;5050885;28;20249;-69
2023/06/05 05:40:32;;;;;;;7.63;3.97;;;15.70;93.30;;;;;;5051037;28;20033;-68
2023/06/05 05:42:58;;;;;;;13.07;4.70;;;15.80;93.40;;;;;;5050883;28;20098;-70
2023/06/05 05:45:24;;;;;;;21.77;5.18;;;15.80;93.20;;;;;;5051600;28;20017;-70
2023/06/05 05:47:49;;;;;;;12.65;4.45;;;15.70;93.70;;;;;;5050929;28;20029;-70
2023/06/05 05:50:15;;;;;;;11.15;4.80;;;15.80;93.50;;;;;;5049863;28;20433;-70
2023/06/05 05:52:43;;;;;;;16.77;4.82;;;15.90;93.40;;;;;;5050680;28;20104;-71
2023/06/05 05:55:09;;;;;;;13.38;4.57;;;16.10;93.40;;;;;;5050875;28;20549;-67
2023/06/05 05:57:34;;;;;;;11.23;3.97;;;16.20;92.80;;;;;;5050910;28;20025;-68
2023/06/05 06:00:00;;;;;;;8.02;4.38;;;16.30;93.00;;;;;;5050531;28;20029;-68
2023/06/05 06:02:26;;;;;;;11.38;3.95;;;16.40;92.80;;;;;;5050591;28;20120;-67
2023/06/05 06:04:51;;;;;;;8.95;3.92;;;16.30;92.90;;;;;;5050433;28;20029;-69
2023/06/05 06:07:17;;;;;;;12.55;4.47;;;16.30;93.10;;;;;;5050607;28;20040;-68
2023/06/05 06:09:44;;;;;;;15.55;4.03;;;16.20;93.10;;;;;;5049986;28;20025;-68
2023/06/05 06:12:10;;;;;;;8.93;4.20;;;16.30;93.10;;;;;;5049680;28;20025;-72
2023/06/05 06:14:36;;;;;;;8.52;3.88;;;16.40;92.80;;;;;;5050488;28;20041;-70
2023/06/05 06:17:04;;;;;;;9.85;4.57;;;16.50;92.50;;;;;;5050413;28;20044;-70
2023/06/05 06:19:32;;;;;;;15.73;4.45;;;16.60;92.50;;;;;;5050195;28;20096;-70
2023/06/05 06:21:58;;;;;;;;;;;16.70;92.60;;;;;;5051010;28;20021;-70
2023/06/05 06:24:24;;;;;;;15.50;4.10;;;16.80;92.60;;;;;;5050772;28;20204;-70
2023/06/05 06:26:52;;;;;;;16.65;4.35;;;16.70;92.40;;;;;;5050741;28;20100;-72
2023/06/05 06:29:24;;;;;;;11.27;4.35;;;17.00;92.30;;;;;;5050647;28;20040;-73
2023/06/05 06:31:50;;;;;;;11.57;3.53;;;17.20;91.80;;;;;;5050754;28;20109;-71
2023/06/05 06:34:16;;;;;;;10.43;4.38;;;17.40;91.30;;;;;;5049290;28;20467;-70
2023/06/05 06:36:43;;;;;;;13.23;4.43;;;17.40;91.30;;;;;;5050196;28;20094;-72
2023/06/05 06:39:10;;;;;;;11.63;3.83;;;17.30;91.40;;;;;;5050871;28;20456;-70
2023/06/05 06:41:37;;;;;;;10.77;4.18;;;17.40;91.30;;;;;;5049252;28;20033;-72
2023/06/05 06:44:03;;;;;;;7.43;4.28;;;17.50;91.30;;;;;;5049755;28;20021;-70
2023/06/05 06:46:30;;;;;;;7.43;3.92;;;17.40;91.20;;;;;;5049329;28;20115;-70
2023/06/05 06:48:56;;;;;;;13.20;3.88;;;17.30;90.90;;;;;;5049254;28;20124;-70
2023/06/05 06:51:22;;;;;;;8.82;3.13;;;17.20;91.10;;;;;;5050644;28;20349;-71
2023/06/05 06:53:48;;;;;;;15.85;5.30;;;17.20;91.20;;;;;;5050550;28;20040;-70
2023/06/05 06:56:16;;;;;;;7.57;3.90;;;17.30;91.00;;;;;;5049277;28;20359;-68
2023/06/05 06:58:42;;;;;;;4.45;3.15;;;17.30;91.10;;;;;;5050548;28;20474;-71
2023/06/05 07:01:09;;;;;;;34.25;5.28;;;17.50;91.00;;;;;;5050287;28;20463;-71
2023/06/05 07:03:35;;;;;;;49.58;7.95;;;17.80;90.80;;;;;;5050730;28;20095;-71
2023/06/05 07:06:01;;;;;;;11.05;5.00;;;18.30;90.50;;;;;;5048834;28;20029;-71
2023/06/05 07:08:27;;;;;;;11.80;3.83;;;18.50;89.70;;;;;;5050190;28;20033;-71
2023/06/05 07:10:56;;;;;;;17.45;4.30;;;18.60;89.80;;;;;;5048786;28;20443;-70
2023/06/05 07:13:22;;;;;;;9.77;3.90;;;18.60;89.50;;;;;;5049060;28;20174;-72
2023/06/05 07:15:49;;;;;;;12.77;4.20;;;18.60;89.30;;;;;;5050048;28;20100;-71
2023/06/05 07:18:19;;;;;;;13.13;4.35;;;18.60;89.20;;;;;;5050629;28;20027;-70
2023/06/05 07:20:45;;;;;;;15.95;4.13;;;18.80;89.30;;;;;;5049711;28;20052;-68
2023/06/05 07:23:11;;;;;;;10.30;4.20;;;18.90;88.70;;;;;;5049536;28;20507;-73
2023/06/05 07:25:37;;;;;;;13.20;4.90;;;18.90;88.50;;;;;;5049844;28;20033;-70
2023/06/05 07:28:08;;;;;;;11.63;4.25;;;19.00;87.90;;;;;;5049749;28;20577;-71
2023/06/05 07:30:33;;;;;;;10.32;3.78;;;19.00;87.20;;;;;;5048892;28;20048;-70
2023/06/05 07:32:59;;;;;;;7.05;3.65;;;19.00;87.20;;;;;;5049855;28;20043;-72
2023/06/05 07:35:25;;;;;;;14.38;4.50;;;19.00;87.30;;;;;;5049315;28;20104;-71
2023/06/05 07:37:50;;;;;;;8.15;3.45;;;19.00;87.40;;;;;;5049884;28;20094;-71
2023/06/05 07:40:16;;;;;;;9.02;3.78;;;19.20;86.80;;;;;;5053277;28;20041;-71
2023/06/05 07:42:42;;;;;;;11.85;3.97;;;19.30;85.80;;;;;;5052914;28;20024;-72
2023/06/05 07:45:08;;;;;;;21.48;4.95;;;19.40;85.60;;;;;;5053708;28;20031;-70
2023/06/05 07:47:34;;;;;;;16.15;4.95;;;19.50;85.30;;;;;;5052095;28;20158;-72
2023/06/05 07:50:03;;;;;;;13.90;3.05;;;19.80;84.50;;;;;;5052739;28;20494;-70
2023/06/05 07:52:31;;;;;;;5.15;3.17;;;20.30;84.10;;;;;;5052051;28;20025;-69
2023/06/05 07:54:57;;;;;;;10.90;3.00;;;20.60;82.90;;;;;;5051703;28;20029;-70
2023/06/05 07:57:27;;;;;;;11.07;3.33;;;20.80;82.70;;;;;;5053372;28;20393;-68
2023/06/05 07:59:53;;;;;;;7.35;2.88;;;21.10;83.60;;;;;;5052984;28;20462;-69
2023/06/05 08:02:19;;;;;;;11.75;3.67;;;21.10;81.20;;;;;;5052894;28;20036;-68
2023/06/05 08:04:45;;;;;;;9.10;3.35;;;21.30;81.70;;;;;;5052603;28;20036;-69
2023/06/05 08:07:11;;;;;;;11.93;3.70;;;21.40;80.90;;;;;;5052723;28;20116;-69
2023/06/05 08:09:37;;;;;;;8.60;3.20;;;21.40;81.20;;;;;;5052029;28;20549;-68
2023/06/05 08:12:06;;;;;;;8.75;2.97;;;21.60;80.50;;;;;;5052440;28;20050;-71
2023/06/05 08:14:34;;;;;;;13.63;3.25;;;21.80;79.30;;;;;;5052744;28;20566;-71
2023/06/05 08:16:59;;;;;;;;;;;21.80;78.00;;;;;;5053003;28;20041;-70
2023/06/05 08:19:25;;;;;;;6.35;2.70;;;21.80;78.10;;;;;;5052468;28;20311;-71
2023/06/05 08:21:53;;;;;;;6.95;2.97;;;22.00;78.00;;;;;;5051244;28;20438;-69
2023/06/05 08:24:20;;;;;;;9.05;2.53;;;22.30;77.80;;;;;;5052693;28;20104;-70
2023/06/05 08:26:46;;;;;;;4.78;2.75;;;22.30;76.00;;;;;;5052100;28;20033;-71
2023/06/05 08:29:14;;;;;;;20.45;11.93;;;22.40;76.10;;;;;;5052445;28;20052;-70
2023/06/05 08:31:40;;;;;;;7.95;3.63;;;22.80;76.80;;;;;;5032269;28;20102;-71
2023/06/05 08:34:06;;;;;;;9.15;2.05;;;23.30;73.60;;;;;;5032426;28;20033;-71
2023/06/05 08:36:32;;;;;;;8.18;2.38;;;23.90;74.50;;;;;;5032737;28;20399;-71
2023/06/05 08:38:59;;;;;;;5.97;2.13;;;25.00;73.20;;;;;;5032069;28;20102;-69
2023/06/05 08:41:25;;;;;;;5.13;2.03;;;26.30;69.90;;;;;;5032137;28;20033;-71
2023/06/05 08:43:51;;;;;;;9.07;3.05;;;26.80;66.80;;;;;;5032488;28;20345;-72
2023/06/05 08:46:17;;;;;;;5.88;2.42;;;27.90;66.40;;;;;;5031979;28;20367;-71
2023/06/05 08:48:50;;;;;;;5.25;3.20;;;28.60;62.90;;;;;;5032349;28;20302;-71
2023/06/05 08:51:18;;;;;;;5.60;2.05;;;29.10;59.90;;;;;;5032560;28;20051;-70
2023/06/05 08:54:04;;;;;;;6.53;2.40;;;29.00;58.20;;;;;;5031954;28;20186;-71
2023/06/05 08:56:31;;;;;;;3.40;1.90;;;29.80;59.60;;;;;;5032035;28;20348;-70
2023/06/05 08:58:58;;;;;;;11.27;2.30;;;30.70;56.10;;;;;;5031905;28;20279;-72
2023/06/05 09:01:24;;;;;;;5.47;2.00;;;30.40;54.20;;;;;;5031302;28;20502;-72
2023/06/05 09:03:50;;;;;;;6.43;2.00;;;30.80;53.50;;;;;;5031857;28;20026;-72
2023/06/05 09:06:16;;;;;;;8.15;2.35;;;31.20;53.80;;;;;;5032231;28;20022;-70
2023/06/05 09:08:41;;;;;;;16.67;4.47;;;31.20;52.40;;;;;;5032038;28;20033;-72
2023/06/05 09:11:26;;;;;;;6.05;2.15;;;31.10;51.20;;;;;;5031507;28;20034;-72
2023/06/05 09:13:54;;;;;;;5.72;1.75;;;30.30;50.30;;;;;;5031684;28;20029;-70
2023/06/05 09:16:20;;;;;;;;;;;30.10;50.80;;;;;;5031988;28;20514;-72
2023/06/05 09:18:57;;;;;;;7.63;2.28;;;30.30;50.70;;;;;;5031402;28;19959;-72
2023/06/05 09:21:28;;;;;;;4.63;2.53;;;30.60;50.80;;;;;;5032277;28;20036;-71
2023/06/05 09:24:13;;;;;;;4.57;2.05;;;30.20;50.70;;;;;;5031141;28;20049;-69
2023/06/05 09:26:58;;;;;;;5.55;1.92;;;30.00;50.30;;;;;;5031078;28;20025;-70
2023/06/05 09:29:28;;;;;;;6.05;1.98;;;29.70;50.60;;;;;;5031108;28;20033;-71
2023/06/05 09:32:00;;;;;;;7.63;2.22;;;29.50;51.10;;;;;;5050060;28;20140;-71
2023/06/05 09:34:27;;;;;;;8.90;1.70;;;29.20;50.90;;;;;;5051027;28;20377;-71
2023/06/05 09:36:54;;;;;;;4.68;1.85;;;29.00;50.10;;;;;;5051242;28;20320;-71
2023/06/05 09:39:21;;;;;;;;;;;29.00;50.70;;;;;;5051891;28;20040;-69
2023/06/05 09:41:51;;;;;;;4.05;1.60;;;28.70;50.30;;;;;;5050951;28;19972;-72
2023/06/05 09:44:18;;;;;;;4.93;1.40;;;28.30;50.20;;;;;;5049729;28;20040;-70
2023/06/05 09:46:50;;;;;;;2.37;1.47;;;28.00;50.50;;;;;;5050951;28;20394;-72
2023/06/05 09:49:16;;;;;;;5.13;1.58;;;27.80;49.80;;;;;;5050820;28;20270;-71
2023/06/05 09:51:46;;;;;;;3.88;1.02;;;27.70;50.50;;;;;;5049611;28;20032;-71
2023/06/05 09:54:12;;;;;;;4.18;1.48;;;27.80;48.70;;;;;;5051230;28;20035;-72
2023/06/05 09:56:46;;;;;;;4.72;1.85;;;27.50;48.30;;;;;;5050695;28;20103;-71
2023/06/05 09:59:17;;;;;;;7.60;2.20;;;27.60;49.70;;;;;;5050427;28;20120;-72
2023/06/05 10:01:43;;;;;;;4.88;1.50;;;27.90;48.90;;;;;;5050307;28;20451;-70
2023/06/05 10:04:11;;;;;;;7.45;1.98;;;27.90;48.80;;;;;;5050540;28;20479;-71
2023/06/05 10:06:39;;;;;;;5.95;1.48;;;27.80;49.60;;;;;;5051100;28;20516;-73
2023/06/05 10:09:07;;;;;;;7.90;4.03;;;27.60;47.60;;;;;;5050680;28;20025;-70
2023/06/05 10:11:33;;;;;;;5.07;1.80;;;27.50;47.40;;;;;;5050563;28;20025;-71
2023/06/05 10:14:00;;;;;;;2.38;1.45;;;27.10;47.70;;;;;;5049200;28;20111;-71
2023/06/05 10:16:28;;;;;;;2.70;1.83;;;27.00;48.00;;;;;;5050584;28;20067;-72
2023/06/05 10:18:56;;;;;;;2.78;1.50;;;27.10;48.70;;;;;;5050212;28;20424;-73
2023/06/05 10:21:22;;;;;;;3.53;2.30;;;27.30;47.80;;;;;;5050590;28;20029;-71
2023/06/05 10:23:57;;;;;;;3.92;1.48;;;27.20;48.20;;;;;;5048999;28;20082;-70
2023/06/05 10:26:54;;;;;;;6.80;1.85;;;27.50;46.80;;;;;;5049032;28;20079;-70
2023/06/05 10:29:39;;;;;;;1.85;1.20;;;27.60;44.80;;;;;;5049918;28;20033;-72
2023/06/05 10:32:28;;;;;;;4.60;1.20;;;27.50;42.90;;;;;;5050248;28;20031;-70
2023/06/05 10:35:18;;;;;;;5.80;2.90;;;27.40;43.40;;;;;;5049812;28;20055;-71
2023/06/05 10:38:03;;;;;;;3.13;1.75;;;27.20;42.50;;;;;;5049976;28;20056;-70
2023/06/05 10:40:29;;;;;;;5.18;2.03;;;27.20;43.20;;;;;;5049892;28;20044;-71
2023/06/05 10:43:33;;;;;;;3.58;1.30;;;27.30;43.70;;;;;;5050219;28;20043;-71
2023/06/05 10:46:20;;;;;;;3.10;1.38;;;27.30;42.90;;;;;;5050092;28;20025;-68
2023/06/05 10:49:05;;;;;;;2.78;1.58;;;27.00;41.70;;;;;;5049678;28;20423;-73
2023/06/05 10:51:42;;;;;;;3.42;1.20;;;27.10;42.80;;;;;;5049221;28;20033;-69
2023/06/05 10:54:34;;;;;;;21.83;3.33;;;27.00;42.90;;;;;;5070224;28;20044;-71
2023/06/05 10:57:06;;;;;;;3.53;1.42;;;26.90;43.00;;;;;;5069818;28;20151;-70
2023/06/05 10:59:36;;;;;;;9.57;1.55;;;27.20;42.50;;;;;;5053434;28;20410;-69
2023/06/05 11:02:12;;;;;;;5.18;1.35;;;26.90;42.40;;;;;;5048850;28;20037;-72
2023/06/05 11:04:47;;;;;;;5.22;1.83;;;26.80;42.50;;;;;;5050153;28;20374;-69
2023/06/05 11:07:17;;;;;;;10.32;1.70;;;26.80;42.60;;;;;;5050071;28;20037;-70
2023/06/05 11:10:01;;;;;;;2.83;1.50;;;27.00;43.30;;;;;;5049707;28;20025;-73
2023/06/05 11:12:47;;;;;;;3.50;1.63;;;27.30;43.30;;;;;;5049969;28;20029;-71
2023/06/05 11:15:14;;;;;;;4.82;1.30;;;27.30;43.70;;;;;;5053667;28;20033;-70
2023/06/05 11:17:45;;;;;;;5.47;1.65;;;26.90;42.70;;;;;;5054029;28;20041;-69
2023/06/05 11:20:28;;;;;;;4.15;1.13;;;27.10;43.30;;;;;;5053502;28;20051;-69
2023/06/05 11:22:55;;;;;;;1.95;1.38;;;27.10;41.60;;;;;;5052554;28;20033;-70
2023/06/05 11:25:21;;;;;;;4.88;1.13;;;27.00;41.50;;;;;;5052526;28;20385;-70
2023/06/05 11:27:55;;;;;;;2.28;1.00;;;27.10;41.90;;;;;;5052344;28;20423;-70
2023/06/05 11:30:28;;;;;;;2.42;1.38;;;27.00;40.70;;;;;;5053811;28;20045;-69
2023/06/05 11:32:58;;;;;;;3.03;1.30;;;27.00;41.40;;;;;;5053348;28;20032;-69
2023/06/05 11:35:28;;;;;;;8.45;3.30;;;27.00;40.90;;;;;;5053354;28;20025;-72
2023/06/05 11:38:13;;;;;;;5.78;3.72;;;26.90;40.40;;;;;;5052047;28;20378;-71
2023/06/05 11:40:40;;;;;;;7.28;3.05;;;26.90;41.40;;;;;;5052052;28;20040;-69
2023/06/05 11:43:07;;;;;;;6.18;1.45;;;27.00;41.60;;;;;;5053173;28;20558;-71
2023/06/05 11:45:35;;;;;;;5.47;1.70;;;26.90;41.80;;;;;;5052584;28;20040;-71
2023/06/05 11:48:07;;;;;;;;;;;26.80;41.70;;;;;;5035285;28;20382;-69
2023/06/05 11:50:34;;;;;;;5.05;1.23;;;26.90;41.60;;;;;;5053026;28;19975;-70
2023/06/05 11:53:11;;;;;;;2.63;1.40;;;26.90;41.70;;;;;;5051701;28;20064;-71
2023/06/05 11:58:26;;;;;;;2.13;1.33;;;26.80;41.80;;;;;;5052994;28;20530;-71
2023/06/05 12:01:03;;;;;;;3.23;1.30;;;26.80;41.10;;;;;;5052900;28;20021;-70
2023/06/05 12:03:29;;;;;;;5.03;1.42;;;26.80;42.00;;;;;;5053151;28;20017;-72
2023/06/05 12:05:55;;;;;;;2.72;1.33;;;26.80;42.30;;;;;;5051382;28;20409;-71
2023/06/05 12:08:35;;;;;;;3.20;1.63;;;26.90;41.80;;;;;;5052291;28;20090;-68
2023/06/05 12:11:02;;;;;;;3.10;1.45;;;26.80;42.10;;;;;;5052343;28;20033;-71
2023/06/05 12:13:44;;;;;;;;;;;26.80;41.80;;;;;;5052844;28;20159;-70
2023/06/05 12:16:10;;;;;;;4.80;1.60;;;26.80;41.80;;;;;;5052530;28;20003;-70
2023/06/05 12:18:36;;;;;;;3.33;1.30;;;26.80;41.50;;;;;;5052766;28;20112;-71
2023/06/05 12:21:02;;;;;;;4.28;1.55;;;26.70;41.60;;;;;;5052394;28;20095;-71
2023/06/05 12:23:31;;;;;;;3.65;1.40;;;26.70;41.00;;;;;;5052327;28;20021;-71
2023/06/05 12:26:04;;;;;;;2.20;1.30;;;26.70;41.80;;;;;;5051990;28;20460;-72
2023/06/05 12:28:31;;;;;;;4.30;2.42;;;26.80;42.40;;;;;;5052651;28;20036;-71
2023/06/05 12:30:57;;;;;;;3.35;1.20;;;26.70;42.10;;;;;;5051941;28;20387;-70
2023/06/05 12:33:24;;;;;;;4.88;1.52;;;26.80;42.70;;;;;;5051513;28;20435;-70
2023/06/05 12:36:10;;;;;;;5.30;1.60;;;26.90;42.20;;;;;;5052204;28;20048;-70
2023/06/05 12:38:41;;;;;;;6.90;1.97;;;26.60;41.60;;;;;;5052121;28;20041;-70
2023/06/05 12:41:10;;;;;;;5.38;1.55;;;26.60;42.00;;;;;;5051841;28;20029;-69
2023/06/05 12:43:36;;;;;;;4.82;1.40;;;26.70;42.60;;;;;;5052247;28;20029;-71
2023/06/05 12:46:02;;;;;;;3.20;1.63;;;26.70;43.00;;;;;;5051246;28;20360;-71
2023/06/05 12:48:28;;;;;;;4.00;1.58;;;26.70;42.80;;;;;;5053099;28;20055;-71
2023/06/05 12:50:55;;;;;;;4.38;1.52;;;26.90;42.50;;;;;;5052089;28;20044;-70
2023/06/05 12:53:21;;;;;;;5.88;2.92;;;26.70;41.60;;;;;;5051798;28;20127;-70
2023/06/05 12:55:47;;;;;;;15.35;9.60;;;26.50;41.80;;;;;;5051974;28;20654;-69